Aérodrome :
LOGIN :

S'inscrire | Disclaimer

   EN    FR    IT 

 










Légende :    VFR   VFR Marginal   IFR   IFR Intensif   IFR Très Intensif
Visi : 
Plafond : 
>= 8 km
>= 3000ft
5 à 8 km
1000 à 3000 ft
1500m à 5 km
500 à 1000 ft
800 à 1500m
200 à 500 ft
< 800m
< 200 ft
Symboles :   Orages  Brouillard  Fortes neiges  Fortes précipitations  Vent > 20 kt
SIGMETs :   Divers  Orages  Givrage  Turbulence  Onde Orograph.  Cendres Volcan.






- Altitude de l'aérodrome : 250 ft


LERI - Alcantarilla

DERNIER METAR :
  • 131030Z 05010KT 020V080 9999 SCT037 30/19 Q1012 NOSIG

METARs EXPIRÉS :
  • 131000Z 08009KT 050V110 9999 BKN037 30/18 Q1012 NOSIG
  • 130930Z 06009KT 020V110 9999 FEW032 BKN040 29/20 Q1013 NOSIG
  • 130900Z 08011KT 050V110 9999 FEW028 BKN036 28/20 Q1013 NOSIG
  • 130830Z 07008KT 030V110 9000 FEW024 BKN033 28/20 Q1013 NOSIG
  • 130800Z 07009KT 030V100 9000 FEW022 BKN035 27/20 Q1013 NOSIG
  • 130730Z 06009KT 9000 FEW019 BKN030 26/20 Q1013 NOSIG
  • 130700Z 06006KT 020V110 9000 FEW023 OVC031 26/21 Q1013 NOSIG
  • 130630Z 06005KT 030V110 9000 FEW028 BKN036 26/21 Q1013 NOSIG
  • 130600Z 05006KT 020V080 9000 FEW028 BKN036 26/21 Q1012 NOSIG

TAF TAF LERI
Valide du 13 à 06h jusqu'au 14 à 06h UTC


130500Z 1306/1406 08010KT 9999 SCT025 TX31/1314Z TN23/1405Z
PROB30
TEMPO 1306/1309 BKN010
BECMG 1319/1322 VRB03KT



MET'MAP, la Météo Aéronautique d'un coup d'oeil ! - Copyright ORBIFLY Décembre 2007 - Disclaimer

ORBIFLY MET'MAP TEAM :

Programmation & Développement : Alexandra Zaïnal
Sur une idée originale de : Baudouin d'Aumeries
Soutien technique & logistique : Manuel Goepfert
Assistance : Marc-Olivier Méhu




SOURCES & CREDITS :

   NOAA